createdAt,value
2018-05-17T00:01:06.713Z,11.70
2018-05-17T00:03:34.192Z,11.70
2018-05-17T00:06:02.452Z,11.90
2018-05-17T00:08:29.927Z,11.90
2018-05-17T00:10:58.196Z,12.00
2018-05-17T00:13:26.439Z,12.00
2018-05-17T00:15:54.028Z,12.00
2018-05-17T00:18:22.268Z,12.10
2018-05-17T00:20:50.231Z,12.10
2018-05-17T00:23:17.955Z,12.10
2018-05-17T00:25:45.432Z,12.10
2018-05-17T00:28:12.923Z,12.00
2018-05-17T00:30:40.512Z,12.00
2018-05-17T00:33:08.780Z,11.90
2018-05-17T00:35:36.352Z,11.90
2018-05-17T00:38:03.903Z,11.90
2018-05-17T00:40:32.159Z,11.80
2018-05-17T00:42:59.640Z,11.80
2018-05-17T00:45:27.901Z,11.70
2018-05-17T00:47:57.011Z,11.80
2018-05-17T00:50:25.267Z,11.80
2018-05-17T00:53:06.080Z,11.90
2018-05-17T00:55:33.612Z,11.90
2018-05-17T00:58:02.858Z,11.90
2018-05-17T01:00:31.985Z,11.90
2018-05-17T01:02:59.716Z,11.90
2018-05-17T01:05:27.480Z,12.00
2018-05-17T01:07:55.243Z,12.00
2018-05-17T01:10:22.757Z,12.00
2018-05-17T01:12:51.040Z,12.10
2018-05-17T01:15:19.379Z,12.00
2018-05-17T01:17:46.856Z,12.00
2018-05-17T01:20:14.352Z,12.00
2018-05-17T01:22:41.827Z,12.00
2018-05-17T01:25:09.345Z,12.00
2018-05-17T01:27:37.619Z,12.00
2018-05-17T01:30:06.140Z,12.00
2018-05-17T01:32:33.656Z,12.00
2018-05-17T01:35:02.196Z,12.10
2018-05-17T01:37:42.500Z,12.10
2018-05-17T01:40:11.020Z,12.20
2018-05-17T01:42:38.788Z,12.20
2018-05-17T01:45:06.271Z,12.20
2018-05-17T01:47:33.859Z,12.20
2018-05-17T01:50:02.109Z,12.20
2018-05-17T01:52:29.613Z,12.20
2018-05-17T01:54:57.099Z,12.30
2018-05-17T01:57:24.587Z,12.30
2018-05-17T01:59:52.091Z,12.30
2018-05-17T02:02:19.872Z,12.40
2018-05-17T02:04:47.372Z,12.40
2018-05-17T02:07:14.852Z,12.40
2018-05-17T02:09:43.095Z,12.40
2018-05-17T02:12:11.395Z,12.40
2018-05-17T02:14:39.919Z,12.50
2018-05-17T02:17:07.435Z,12.50
2018-05-17T02:19:35.680Z,12.40
2018-05-17T02:22:03.182Z,12.40
2018-05-17T02:24:31.431Z,12.40
2018-05-17T02:26:59.251Z,12.30
2018-05-17T02:29:26.770Z,12.40
2018-05-17T02:31:55.048Z,12.40
2018-05-17T02:34:23.312Z,12.40
2018-05-17T02:36:50.796Z,12.40
2018-05-17T02:39:18.336Z,12.50
2018-05-17T02:41:46.712Z,12.50
2018-05-17T02:44:14.964Z,12.50
2018-05-17T02:46:42.463Z,12.50
2018-05-17T02:49:10.264Z,12.60
2018-05-17T02:51:37.764Z,12.60
2018-05-17T02:54:05.268Z,12.60
2018-05-17T02:56:32.780Z,12.60
2018-05-17T02:59:01.032Z,12.70
2018-05-17T03:01:29.283Z,12.70
2018-05-17T03:03:57.045Z,12.70
2018-05-17T03:06:24.524Z,12.70
2018-05-17T03:08:52.020Z,12.80
2018-05-17T03:11:20.268Z,12.70
2018-05-17T03:13:47.775Z,12.70
2018-05-17T03:16:15.309Z,12.80
2018-05-17T03:18:43.586Z,12.80
2018-05-17T03:21:11.851Z,12.80
2018-05-17T03:23:40.099Z,12.80
2018-05-17T03:26:07.839Z,12.80
2018-05-17T03:28:35.609Z,12.80
2018-05-17T03:31:03.112Z,12.80
2018-05-17T03:33:30.628Z,12.80
2018-05-17T03:35:58.128Z,12.80
2018-05-17T03:38:26.656Z,12.80
2018-05-17T03:40:54.423Z,12.80
2018-05-17T03:43:21.923Z,12.80
2018-05-17T03:45:49.408Z,12.80
2018-05-17T03:48:16.919Z,12.80
2018-05-17T03:50:44.547Z,12.80
2018-05-17T03:53:12.067Z,12.80
2018-05-17T03:55:40.339Z,12.90
2018-05-17T03:58:07.824Z,12.80
2018-05-17T04:00:47.240Z,12.90
2018-05-17T04:03:27.548Z,12.90
2018-05-17T04:06:07.015Z,12.90
2018-05-17T04:08:35.473Z,12.90
2018-05-17T04:11:02.876Z,13.00
2018-05-17T04:13:31.395Z,13.00
2018-05-17T04:15:59.164Z,13.00
2018-05-17T04:18:26.684Z,13.00
2018-05-17T04:20:54.948Z,13.10
2018-05-17T04:23:23.224Z,13.20
2018-05-17T04:25:51.752Z,13.20
2018-05-17T04:28:19.252Z,13.20
2018-05-17T04:30:47.068Z,13.20
2018-05-17T04:33:14.832Z,13.20
2018-05-17T04:35:43.322Z,13.30
2018-05-17T04:38:12.388Z,13.20
2018-05-17T04:40:40.180Z,13.30
2018-05-17T04:43:07.811Z,13.30
2018-05-17T04:45:36.056Z,13.30
2018-05-17T04:48:03.536Z,13.30
2018-05-17T04:52:59.871Z,13.30
2018-05-17T04:55:28.499Z,13.20
2018-05-17T04:57:56.432Z,13.30
2018-05-17T05:00:23.940Z,13.30
2018-05-17T05:02:51.444Z,13.20
2018-05-17T05:05:18.940Z,13.20
2018-05-17T05:07:46.421Z,13.20
2018-05-17T05:10:13.910Z,13.30
2018-05-17T05:12:42.851Z,13.20
2018-05-17T05:15:10.613Z,13.20
2018-05-17T05:17:38.380Z,13.20
2018-05-17T05:20:05.863Z,13.10
2018-05-17T05:22:33.349Z,13.10
2018-05-17T05:25:01.630Z,13.20
2018-05-17T05:27:29.879Z,13.20
2018-05-17T05:29:58.152Z,13.10
2018-05-17T05:32:25.636Z,13.10
2018-05-17T05:34:53.883Z,13.10
2018-05-17T05:37:21.384Z,13.10
2018-05-17T05:39:48.863Z,13.10
2018-05-17T05:42:16.588Z,13.10
2018-05-17T05:44:44.864Z,13.00
2018-05-17T05:47:13.481Z,13.10
2018-05-17T05:49:40.999Z,13.10
2018-05-17T05:52:08.811Z,13.10
2018-05-17T05:54:36.315Z,13.20
2018-05-17T05:57:04.041Z,13.30
2018-05-17T05:59:35.341Z,14.00
2018-05-17T06:09:39.194Z,13.70
2018-05-17T06:12:09.647Z,13.70
2018-05-17T06:17:09.139Z,13.80
2018-05-17T06:19:37.383Z,13.80
2018-05-17T06:22:04.864Z,13.80
2018-05-17T06:24:33.481Z,13.70
2018-05-17T06:27:01.269Z,13.70
2018-05-17T06:29:29.235Z,13.80
2018-05-17T06:31:58.083Z,13.70
2018-05-17T06:34:27.543Z,13.70
2018-05-17T06:36:55.802Z,13.80
2018-05-17T06:39:23.424Z,13.80
2018-05-17T06:41:52.352Z,13.70
2018-05-17T06:44:20.524Z,13.80
2018-05-17T07:17:16.960Z,13.90
2018-05-17T07:19:46.656Z,13.80
2018-05-17T07:22:15.184Z,13.80
2018-05-17T07:24:43.678Z,13.80
2018-05-17T07:42:25.352Z,13.90
2018-05-17T07:44:54.032Z,13.80
2018-05-17T07:47:21.543Z,13.80
2018-05-17T07:49:50.451Z,13.80
2018-05-17T07:52:18.216Z,13.90
2018-05-17T07:54:45.701Z,13.90
2018-05-17T07:57:13.927Z,14.00
2018-05-17T08:02:12.952Z,14.00
2018-05-17T08:04:40.451Z,14.10
2018-05-17T08:07:07.927Z,14.10
2018-05-17T08:09:36.211Z,14.10
2018-05-17T08:12:04.734Z,14.10
2018-05-17T08:14:32.250Z,14.00
2018-05-17T08:17:00.515Z,14.10
2018-05-17T08:19:27.995Z,14.10
2018-05-17T08:21:55.784Z,14.00
2018-05-17T08:24:23.282Z,14.00
2018-05-17T08:26:51.531Z,13.90
2018-05-17T08:29:19.135Z,13.90
2018-05-17T08:31:47.416Z,13.80
2018-05-17T08:34:16.095Z,13.80
2018-05-17T08:36:44.465Z,13.80
2018-05-17T08:39:11.843Z,13.80
2018-05-17T08:41:39.344Z,13.80
2018-05-17T08:44:06.824Z,13.80
2018-05-17T08:46:34.311Z,13.90
2018-05-17T08:49:01.812Z,13.90
2018-05-17T08:51:29.535Z,13.90
2018-05-17T08:53:58.016Z,13.90
2018-05-17T08:56:26.264Z,13.90
2018-05-17T08:58:53.748Z,13.80
2018-05-17T09:01:22.379Z,13.90
2018-05-17T09:03:49.860Z,13.90
2018-05-17T09:06:17.721Z,14.00
2018-05-17T09:08:45.208Z,14.10
2018-05-17T09:11:13.940Z,14.00
2018-05-17T09:13:41.447Z,14.00
2018-05-17T09:16:10.136Z,14.10
2018-05-17T09:18:38.920Z,14.10
2018-05-17T09:21:07.531Z,14.20
2018-05-17T09:23:36.395Z,14.20
2018-05-17T09:26:05.033Z,14.30
2018-05-17T09:28:32.739Z,14.30
2018-05-17T09:31:01.424Z,14.50
2018-05-17T09:33:29.951Z,14.50
2018-05-17T09:35:57.502Z,14.60
2018-05-17T09:38:24.999Z,14.50
2018-05-17T09:40:53.303Z,14.60
2018-05-17T09:43:20.763Z,14.60
2018-05-17T09:45:49.016Z,14.70
2018-05-17T09:48:18.004Z,14.80
2018-05-17T09:50:45.584Z,14.80
2018-05-17T09:53:13.866Z,14.90
2018-05-17T09:55:42.136Z,14.90
2018-05-17T09:58:10.383Z,15.00
2018-05-17T10:03:17.760Z,14.80
2018-05-17T10:15:54.251Z,14.50
2018-05-17T10:18:22.881Z,14.30
2018-05-17T10:20:50.391Z,14.30
2018-05-17T10:23:19.032Z,14.20
2018-05-17T10:25:46.516Z,14.20
2018-05-17T10:28:14.095Z,14.10
2018-05-17T10:30:42.728Z,14.20
2018-05-17T10:33:10.212Z,14.20
2018-05-17T10:35:37.715Z,14.30
2018-05-17T10:38:05.504Z,14.40
2018-05-17T10:40:37.268Z,14.50
2018-05-17T10:43:04.755Z,14.70
2018-05-17T10:45:32.243Z,14.80
2018-05-17T10:48:00.608Z,14.70
2018-05-17T10:50:29.295Z,14.60
2018-05-17T10:52:57.563Z,14.60
2018-05-17T10:55:25.050Z,14.60
2018-05-17T10:57:52.643Z,14.60
2018-05-17T11:00:20.394Z,14.60
2018-05-17T11:02:47.887Z,14.60
2018-05-17T11:05:16.372Z,14.50
2018-05-17T11:07:43.949Z,14.50
2018-05-17T11:10:14.092Z,14.50
2018-05-17T11:12:41.583Z,14.50
2018-05-17T11:15:09.081Z,14.60
2018-05-17T11:17:37.343Z,14.50
2018-05-17T11:20:08.855Z,14.50
2018-05-17T11:22:36.615Z,14.50
2018-05-17T11:25:04.135Z,14.50
2018-05-17T11:27:32.753Z,14.60
2018-05-17T11:30:02.525Z,14.70
2018-05-17T11:35:01.747Z,14.80
2018-05-17T11:37:30.391Z,14.90
2018-05-17T11:39:57.872Z,14.90
2018-05-17T11:57:30.171Z,15.10
2018-05-17T11:59:58.915Z,14.90
2018-05-17T12:38:19.368Z,15.20
2018-05-17T12:45:48.286Z,15.40
2018-05-17T12:48:16.568Z,15.60
2018-05-17T12:50:44.913Z,15.80
2018-05-17T12:53:12.404Z,15.80
2018-05-17T12:55:40.668Z,15.80
2018-05-17T12:58:08.151Z,15.80
2018-05-17T13:00:35.653Z,15.80
2018-05-17T13:03:03.131Z,15.90
2018-05-17T13:05:30.615Z,15.90
2018-05-17T13:07:59.099Z,15.90
2018-05-17T13:10:27.346Z,16.10
2018-05-17T13:12:55.174Z,16.00
2018-05-17T13:15:22.931Z,16.20
2018-05-17T13:17:50.452Z,16.20
2018-05-17T13:20:18.723Z,16.10
2018-05-17T13:22:47.328Z,16.20
2018-05-17T13:25:15.011Z,16.10
2018-05-17T13:27:42.528Z,16.40
2018-05-17T13:30:10.814Z,16.50
2018-05-17T13:32:38.288Z,16.50
2018-05-17T13:35:06.071Z,16.50
2018-05-17T13:37:33.684Z,16.50
2018-05-17T13:40:01.924Z,16.60
2018-05-17T13:42:29.420Z,16.60
2018-05-17T13:44:57.683Z,16.60
2018-05-17T13:47:25.400Z,16.60
2018-05-17T13:49:52.895Z,16.60
2018-05-17T13:52:20.363Z,16.60
2018-05-17T13:54:47.928Z,16.60
2018-05-17T13:57:16.202Z,16.50
2018-05-17T13:59:44.453Z,16.40
2018-05-17T14:02:12.194Z,16.40
2018-05-17T14:04:39.676Z,16.30
2018-05-17T14:07:07.156Z,16.30
2018-05-17T14:09:35.435Z,16.20
2018-05-17T14:12:02.907Z,16.10
2018-05-17T14:14:30.708Z,16.20
2018-05-17T14:16:58.191Z,16.10
2018-05-17T14:19:27.176Z,16.20
2018-05-17T14:21:54.672Z,16.20
2018-05-17T14:24:22.171Z,16.30
2018-05-17T14:26:49.677Z,16.20
2018-05-17T14:29:17.921Z,16.10
2018-05-17T14:31:45.505Z,16.00
2018-05-17T14:34:12.920Z,16.00
2018-05-17T14:36:40.403Z,15.90
2018-05-17T14:39:07.896Z,15.90
2018-05-17T14:41:36.408Z,16.00
2018-05-17T14:44:03.925Z,16.00
2018-05-17T14:46:32.199Z,16.20
2018-05-17T14:49:00.443Z,16.50
2018-05-17T14:51:27.944Z,16.40
2018-05-17T14:53:56.205Z,16.50
2018-05-17T14:56:24.446Z,16.40
2018-05-17T14:58:51.941Z,16.40
2018-05-17T15:01:20.257Z,16.40
2018-05-17T15:03:47.708Z,16.30
2018-05-17T15:06:15.183Z,16.30
2018-05-17T15:08:42.717Z,16.40
2018-05-17T15:11:14.746Z,16.50
2018-05-17T15:13:37.915Z,16.60
2018-05-17T15:16:06.431Z,16.50
2018-05-17T15:18:33.907Z,16.40
2018-05-17T15:21:01.660Z,16.40
2018-05-17T15:23:29.168Z,16.40
2018-05-17T15:25:57.412Z,16.30
2018-05-17T15:28:24.908Z,16.20
2018-05-17T15:30:53.185Z,16.20
2018-05-17T15:33:21.427Z,16.30
2018-05-17T15:35:48.922Z,16.20
2018-05-17T15:38:16.408Z,16.30
2018-05-17T15:40:43.903Z,16.30
2018-05-17T15:43:11.380Z,16.30
2018-05-17T15:45:39.092Z,16.30
2018-05-17T15:48:06.612Z,16.40
2018-05-17T15:50:35.296Z,16.60
2018-05-17T15:53:03.668Z,16.70
2018-05-17T15:55:31.952Z,16.80
2018-05-17T15:58:00.195Z,16.80
2018-05-17T16:00:27.687Z,16.90
2018-05-17T16:02:55.933Z,17.00
2018-05-17T16:05:23.431Z,16.90
2018-05-17T16:07:50.907Z,17.00
2018-05-17T16:10:19.584Z,17.00
2018-05-17T16:12:47.455Z,17.00
2018-05-17T16:15:15.119Z,17.00
2018-05-17T16:17:42.432Z,17.00
2018-05-17T16:20:10.687Z,16.70
2018-05-17T16:22:38.268Z,16.70
2018-05-17T16:25:06.528Z,16.60
2018-05-17T16:27:34.013Z,16.60
2018-05-17T16:30:02.288Z,16.40
2018-05-17T16:32:30.803Z,16.30
2018-05-17T16:34:58.286Z,16.30
2018-05-17T16:37:25.781Z,16.30
2018-05-17T16:39:55.509Z,16.10
2018-05-17T16:42:23.036Z,16.20
2018-05-17T16:44:51.686Z,16.20
2018-05-17T16:47:19.321Z,16.20
2018-05-17T16:49:46.864Z,16.20
2018-05-17T16:52:14.340Z,16.10
2018-05-17T16:54:41.876Z,16.10
2018-05-17T16:57:10.121Z,16.20
2018-05-17T16:59:38.365Z,16.10
2018-05-17T17:02:05.859Z,16.10
2018-05-17T17:04:33.427Z,16.10
2018-05-17T17:07:01.706Z,16.00
2018-05-17T17:09:29.963Z,16.10
2018-05-17T17:11:57.485Z,16.10
2018-05-17T17:14:25.016Z,16.10
2018-05-17T17:16:52.503Z,16.10
2018-05-17T17:19:19.995Z,16.00
2018-05-17T17:21:47.496Z,15.90
2018-05-17T17:24:14.976Z,15.80
2018-05-17T17:26:42.472Z,15.80
2018-05-17T17:29:09.958Z,15.70
2018-05-17T17:31:37.523Z,15.70
2018-05-17T17:34:05.005Z,15.60
2018-05-17T17:36:32.784Z,15.60
2018-05-17T17:39:00.280Z,15.50
2018-05-17T17:41:29.212Z,15.30
2018-05-17T17:43:57.185Z,15.30
2018-05-17T17:46:24.687Z,15.30
2018-05-17T17:48:52.255Z,15.20
2018-05-17T17:51:20.779Z,15.10
2018-05-17T17:58:52.405Z,14.90
2018-05-17T18:01:20.131Z,14.90
2018-05-17T18:03:47.624Z,14.90
2018-05-17T18:06:15.097Z,14.90
2018-05-17T18:08:42.593Z,14.90
2018-05-17T18:11:11.260Z,14.70
2018-05-17T22:05:53.308Z,10.70
2018-05-17T22:08:20.795Z,10.70
2018-05-17T22:10:48.271Z,10.60
2018-05-17T22:13:16.532Z,10.50
2018-05-17T22:15:44.247Z,10.50
2018-05-17T22:18:11.763Z,10.50
2018-05-17T22:20:40.388Z,10.30
2018-05-17T22:23:07.876Z,10.30
2018-05-17T22:25:35.372Z,10.30
2018-05-17T22:28:03.619Z,10.20
2018-05-17T22:30:31.100Z,10.20
2018-05-17T22:32:59.842Z,10.10
2018-05-17T22:35:27.316Z,10.10
2018-05-17T22:37:54.812Z,10.00
2018-05-17T22:40:23.323Z,10.10
2018-05-17T22:42:50.839Z,10.10
2018-05-17T22:45:19.096Z,10.10
2018-05-17T22:47:46.576Z,10.10
2018-05-17T22:50:15.251Z,10.00
2018-05-17T22:52:42.967Z,10.00
2018-05-17T22:55:11.643Z,9.90
2018-05-17T22:57:51.140Z,9.90
2018-05-17T23:05:18.768Z,9.80
2018-05-17T23:41:12.558Z,9.50
2018-05-17T23:43:40.331Z,9.60
2018-05-17T23:46:08.096Z,9.50
